sensor_id;sensor_type;location;lat;lon;timestamp;temperature;humidity
25440;DHT22;13365;52.208;5.488;2022-11-21T00:00:37;7.20;96.70
25440;DHT22;13365;52.208;5.488;2022-11-21T00:03:03;7.40;96.80
25440;DHT22;13365;52.208;5.488;2022-11-21T00:05:30;7.50;96.50
25440;DHT22;13365;52.208;5.488;2022-11-21T00:07:56;7.60;96.70
25440;DHT22;13365;52.208;5.488;2022-11-21T00:10:23;7.80;96.50
25440;DHT22;13365;52.208;5.488;2022-11-21T00:12:53;8.10;96.00
25440;DHT22;13365;52.208;5.488;2022-11-21T00:15:19;8.20;95.40
25440;DHT22;13365;52.208;5.488;2022-11-21T00:17:45;8.10;95.30
25440;DHT22;13365;52.208;5.488;2022-11-21T00:20:10;8.10;95.10
25440;DHT22;13365;52.208;5.488;2022-11-21T00:22:36;8.00;95.40
25440;DHT22;13365;52.208;5.488;2022-11-21T00:25:02;7.90;95.30
25440;DHT22;13365;52.208;5.488;2022-11-21T00:27:28;8.20;95.40
25440;DHT22;13365;52.208;5.488;2022-11-21T00:29:53;8.40;95.00
25440;DHT22;13365;52.208;5.488;2022-11-21T00:32:19;8.60;94.30
25440;DHT22;13365;52.208;5.488;2022-11-21T00:34:44;8.70;93.90
25440;DHT22;13365;52.208;5.488;2022-11-21T00:37:10;8.60;93.50
25440;DHT22;13365;52.208;5.488;2022-11-21T00:39:35;8.60;93.40
25440;DHT22;13365;52.208;5.488;2022-11-21T00:42:01;8.80;93.40
25440;DHT22;13365;52.208;5.488;2022-11-21T00:44:26;8.80;93.30
25440;DHT22;13365;52.208;5.488;2022-11-21T00:46:52;8.80;93.30
25440;DHT22;13365;52.208;5.488;2022-11-21T00:49:17;9.00;93.30
25440;DHT22;13365;52.208;5.488;2022-11-21T00:51:43;9.10;93.30
25440;DHT22;13365;52.208;5.488;2022-11-21T00:54:08;9.20;93.00
25440;DHT22;13365;52.208;5.488;2022-11-21T00:56:34;9.10;93.00
25440;DHT22;13365;52.208;5.488;2022-11-21T00:58:59;9.20;93.20
25440;DHT22;13365;52.208;5.488;2022-11-21T01:01:25;9.20;93.20
25440;DHT22;13365;52.208;5.488;2022-11-21T01:03:50;9.30;93.20
25440;DHT22;13365;52.208;5.488;2022-11-21T01:06:16;9.40;93.10
25440;DHT22;13365;52.208;5.488;2022-11-21T01:08:42;9.20;92.90
25440;DHT22;13365;52.208;5.488;2022-11-21T01:11:16;9.20;93.10
25440;DHT22;13365;52.208;5.488;2022-11-21T01:13:43;9.10;92.90
25440;DHT22;13365;52.208;5.488;2022-11-21T01:18:39;9.20;93.00
25440;DHT22;13365;52.208;5.488;2022-11-21T01:21:13;9.20;93.00
25440;DHT22;13365;52.208;5.488;2022-11-21T01:23:39;9.20;93.10
25440;DHT22;13365;52.208;5.488;2022-11-21T01:26:06;9.20;93.10
25440;DHT22;13365;52.208;5.488;2022-11-21T01:28:32;9.30;93.10
25440;DHT22;13365;52.208;5.488;2022-11-21T01:31:13;9.40;92.90
25440;DHT22;13365;52.208;5.488;2022-11-21T01:33:39;9.30;92.90
25440;DHT22;13365;52.208;5.488;2022-11-21T01:36:13;9.40;92.70
25440;DHT22;13365;52.208;5.488;2022-11-21T01:38:40;9.30;92.40
25440;DHT22;13365;52.208;5.488;2022-11-21T01:41:07;9.40;92.60
25440;DHT22;13365;52.208;5.488;2022-11-21T01:43:33;9.30;92.60
25440;DHT22;13365;52.208;5.488;2022-11-21T01:46:00;9.40;92.60
25440;DHT22;13365;52.208;5.488;2022-11-21T01:51:36;8.60;93.20
25440;DHT22;13365;52.208;5.488;2022-11-21T01:59:31;8.20;94.20
25440;DHT22;13365;52.208;5.488;2022-11-21T02:01:59;8.20;94.20
25440;DHT22;13365;52.208;5.488;2022-11-21T02:04:28;8.50;94.00
25440;DHT22;13365;52.208;5.488;2022-11-21T02:06:55;8.70;93.80
25440;DHT22;13365;52.208;5.488;2022-11-21T02:09:22;8.70;93.40
25440;DHT22;13365;52.208;5.488;2022-11-21T02:11:54;8.90;93.20
25440;DHT22;13365;52.208;5.488;2022-11-21T02:14:21;8.90;92.90
25440;DHT22;13365;52.208;5.488;2022-11-21T02:16:47;8.90;92.80
25440;DHT22;13365;52.208;5.488;2022-11-21T02:19:27;9.00;92.50
25440;DHT22;13365;52.208;5.488;2022-11-21T02:22:01;9.00;92.30
25440;DHT22;13365;52.208;5.488;2022-11-21T02:26:58;8.80;91.80
25440;DHT22;13365;52.208;5.488;2022-11-21T02:29:25;8.80;91.90
25440;DHT22;13365;52.208;5.488;2022-11-21T02:31:51;8.80;91.70
25440;DHT22;13365;52.208;5.488;2022-11-21T02:34:17;8.70;91.50
25440;DHT22;13365;52.208;5.488;2022-11-21T02:36:45;8.70;91.50
25440;DHT22;13365;52.208;5.488;2022-11-21T02:39:17;8.70;91.40
25440;DHT22;13365;52.208;5.488;2022-11-21T02:42:05;8.60;91.20
25440;DHT22;13365;52.208;5.488;2022-11-21T02:45:40;8.50;91.30
25440;DHT22;13365;52.208;5.488;2022-11-21T02:47:42;8.50;91.50
25440;DHT22;13365;52.208;5.488;2022-11-21T02:50:28;8.50;91.60
25440;DHT22;13365;52.208;5.488;2022-11-21T02:52:54;8.30;91.60
25440;DHT22;13365;52.208;5.488;2022-11-21T02:55:20;8.20;91.70
25440;DHT22;13365;52.208;5.488;2022-11-21T02:57:46;8.30;91.80
25440;DHT22;13365;52.208;5.488;2022-11-21T03:00:12;8.40;92.10
25440;DHT22;13365;52.208;5.488;2022-11-21T03:02:38;8.40;91.80
25440;DHT22;13365;52.208;5.488;2022-11-21T03:05:06;8.40;91.90
25440;DHT22;13365;52.208;5.488;2022-11-21T03:07:31;8.40;92.00
25440;DHT22;13365;52.208;5.488;2022-11-21T03:09:57;8.40;92.10
25440;DHT22;13365;52.208;5.488;2022-11-21T03:12:22;8.50;92.10
25440;DHT22;13365;52.208;5.488;2022-11-21T03:14:48;8.50;92.00
25440;DHT22;13365;52.208;5.488;2022-11-21T03:17:14;8.60;92.10
25440;DHT22;13365;52.208;5.488;2022-11-21T03:19:39;8.60;92.00
25440;DHT22;13365;52.208;5.488;2022-11-21T03:22:05;8.60;92.00
25440;DHT22;13365;52.208;5.488;2022-11-21T03:24:30;8.60;92.10
25440;DHT22;13365;52.208;5.488;2022-11-21T03:26:56;8.60;92.20
25440;DHT22;13365;52.208;5.488;2022-11-21T03:29:21;8.60;92.10
25440;DHT22;13365;52.208;5.488;2022-11-21T03:31:47;8.70;92.10
25440;DHT22;13365;52.208;5.488;2022-11-21T03:34:12;8.60;92.10
25440;DHT22;13365;52.208;5.488;2022-11-21T03:36:38;8.60;92.30
25440;DHT22;13365;52.208;5.488;2022-11-21T03:39:03;8.60;92.40
25440;DHT22;13365;52.208;5.488;2022-11-21T03:41:29;8.60;92.30
25440;DHT22;13365;52.208;5.488;2022-11-21T03:44:04;8.60;92.40
25440;DHT22;13365;52.208;5.488;2022-11-21T03:46:32;8.70;92.50
25440;DHT22;13365;52.208;5.488;2022-11-21T03:48:58;8.70;92.40
25440;DHT22;13365;52.208;5.488;2022-11-21T03:51:24;8.70;92.50
25440;DHT22;13365;52.208;5.488;2022-11-21T03:53:50;8.70;92.60
25440;DHT22;13365;52.208;5.488;2022-11-21T03:56:16;8.70;92.40
25440;DHT22;13365;52.208;5.488;2022-11-21T03:58:42;8.60;92.60
25440;DHT22;13365;52.208;5.488;2022-11-21T04:01:08;8.70;92.80
25440;DHT22;13365;52.208;5.488;2022-11-21T04:03:34;8.70;92.80
25440;DHT22;13365;52.208;5.488;2022-11-21T04:05:59;8.70;92.70
25440;DHT22;13365;52.208;5.488;2022-11-21T04:08:26;8.70;92.80
25440;DHT22;13365;52.208;5.488;2022-11-21T04:10:53;8.60;92.80
25440;DHT22;13365;52.208;5.488;2022-11-21T04:13:19;8.50;92.90
25440;DHT22;13365;52.208;5.488;2022-11-21T04:15:45;8.50;93.20
25440;DHT22;13365;52.208;5.488;2022-11-21T04:18:11;8.50;93.30
25440;DHT22;13365;52.208;5.488;2022-11-21T04:20:38;8.50;93.40
25440;DHT22;13365;52.208;5.488;2022-11-21T04:23:03;8.60;93.50
25440;DHT22;13365;52.208;5.488;2022-11-21T04:25:29;8.50;93.50
25440;DHT22;13365;52.208;5.488;2022-11-21T04:27:55;8.70;93.40
25440;DHT22;13365;52.208;5.488;2022-11-21T04:30:21;8.80;93.30
25440;DHT22;13365;52.208;5.488;2022-11-21T04:32:49;8.80;93.10
25440;DHT22;13365;52.208;5.488;2022-11-21T04:35:15;8.80;93.00
25440;DHT22;13365;52.208;5.488;2022-11-21T04:37:40;8.70;93.00
25440;DHT22;13365;52.208;5.488;2022-11-21T04:40:06;8.70;93.10
25440;DHT22;13365;52.208;5.488;2022-11-21T04:42:32;8.50;93.20
25440;DHT22;13365;52.208;5.488;2022-11-21T04:44:57;8.50;93.40
25440;DHT22;13365;52.208;5.488;2022-11-21T04:47:23;8.40;93.70
25440;DHT22;13365;52.208;5.488;2022-11-21T04:49:48;8.30;93.90
25440;DHT22;13365;52.208;5.488;2022-11-21T04:52:14;8.30;94.00
25440;DHT22;13365;52.208;5.488;2022-11-21T04:54:39;8.10;94.00
25440;DHT22;13365;52.208;5.488;2022-11-21T04:57:05;8.10;94.20
25440;DHT22;13365;52.208;5.488;2022-11-21T04:59:30;8.10;94.20
25440;DHT22;13365;52.208;5.488;2022-11-21T05:01:56;8.00;94.30
25440;DHT22;13365;52.208;5.488;2022-11-21T05:04:21;8.10;94.50
25440;DHT22;13365;52.208;5.488;2022-11-21T05:06:47;8.10;94.90
25440;DHT22;13365;52.208;5.488;2022-11-21T05:09:12;8.10;94.40
25440;DHT22;13365;52.208;5.488;2022-11-21T05:11:38;8.30;94.40
25440;DHT22;13365;52.208;5.488;2022-11-21T05:14:22;8.30;94.30
25440;DHT22;13365;52.208;5.488;2022-11-21T05:16:51;8.40;94.10
25440;DHT22;13365;52.208;5.488;2022-11-21T05:19:16;8.30;93.90
25440;DHT22;13365;52.208;5.488;2022-11-21T05:21:42;8.30;93.90
25440;DHT22;13365;52.208;5.488;2022-11-21T05:24:07;8.30;94.00
25440;DHT22;13365;52.208;5.488;2022-11-21T05:26:33;8.30;94.00
25440;DHT22;13365;52.208;5.488;2022-11-21T05:28:58;8.20;94.30
25440;DHT22;13365;52.208;5.488;2022-11-21T05:31:24;8.20;94.40
25440;DHT22;13365;52.208;5.488;2022-11-21T05:33:49;8.50;94.40
25440;DHT22;13365;52.208;5.488;2022-11-21T05:36:15;8.60;94.10
25440;DHT22;13365;52.208;5.488;2022-11-21T05:38:41;8.70;93.80
25440;DHT22;13365;52.208;5.488;2022-11-21T05:41:07;8.60;93.60
25440;DHT22;13365;52.208;5.488;2022-11-21T05:43:32;8.40;93.90
25440;DHT22;13365;52.208;5.488;2022-11-21T05:46:13;8.40;94.10
25440;DHT22;13365;52.208;5.488;2022-11-21T05:48:40;8.40;94.20
25440;DHT22;13365;52.208;5.488;2022-11-21T05:51:06;8.40;94.10
25440;DHT22;13365;52.208;5.488;2022-11-21T05:53:33;8.30;94.30
25440;DHT22;13365;52.208;5.488;2022-11-21T05:56:06;8.30;94.50
25440;DHT22;13365;52.208;5.488;2022-11-21T05:58:32;8.30;94.50
25440;DHT22;13365;52.208;5.488;2022-11-21T06:00:58;8.30;94.50
25440;DHT22;13365;52.208;5.488;2022-11-21T06:03:25;8.40;94.80
25440;DHT22;13365;52.208;5.488;2022-11-21T06:06:05;8.40;94.50
25440;DHT22;13365;52.208;5.488;2022-11-21T06:08:37;8.40;94.40
25440;DHT22;13365;52.208;5.488;2022-11-21T06:11:03;8.50;94.50
25440;DHT22;13365;52.208;5.488;2022-11-21T06:13:29;8.50;94.30
25440;DHT22;13365;52.208;5.488;2022-11-21T06:16:03;8.70;94.50
25440;DHT22;13365;52.208;5.488;2022-11-21T06:18:31;8.80;94.20
25440;DHT22;13365;52.208;5.488;2022-11-21T06:21:18;8.80;94.00
25440;DHT22;13365;52.208;5.488;2022-11-21T06:23:44;8.70;93.90
25440;DHT22;13365;52.208;5.488;2022-11-21T06:26:14;8.60;94.30
25440;DHT22;13365;52.208;5.488;2022-11-21T06:28:41;8.60;94.40
25440;DHT22;13365;52.208;5.488;2022-11-21T06:31:15;8.70;94.30
25440;DHT22;13365;52.208;5.488;2022-11-21T06:33:42;8.80;94.30
25440;DHT22;13365;52.208;5.488;2022-11-21T06:36:13;8.90;94.20
25440;DHT22;13365;52.208;5.488;2022-11-21T06:38:38;8.80;94.20
25440;DHT22;13365;52.208;5.488;2022-11-21T06:41:11;8.80;94.40
25440;DHT22;13365;52.208;5.488;2022-11-21T06:43:36;8.80;94.30
25440;DHT22;13365;52.208;5.488;2022-11-21T06:46:02;8.90;94.40
25440;DHT22;13365;52.208;5.488;2022-11-21T06:48:32;9.00;94.20
25440;DHT22;13365;52.208;5.488;2022-11-21T06:51:03;8.90;94.20
25440;DHT22;13365;52.208;5.488;2022-11-21T06:53:28;9.00;94.60
25440;DHT22;13365;52.208;5.488;2022-11-21T06:55:57;9.00;94.30
25440;DHT22;13365;52.208;5.488;2022-11-21T06:58:24;9.10;94.20
25440;DHT22;13365;52.208;5.488;2022-11-21T07:00:49;9.10;94.20
25440;DHT22;13365;52.208;5.488;2022-11-21T07:03:15;9.00;94.20
25440;DHT22;13365;52.208;5.488;2022-11-21T07:05:40;8.80;94.30
25440;DHT22;13365;52.208;5.488;2022-11-21T07:08:06;8.90;94.60
25440;DHT22;13365;52.208;5.488;2022-11-21T07:10:32;8.80;94.60
25440;DHT22;13365;52.208;5.488;2022-11-21T07:12:58;8.90;94.90
25440;DHT22;13365;52.208;5.488;2022-11-21T07:15:43;9.00;94.80
25440;DHT22;13365;52.208;5.488;2022-11-21T07:18:08;8.90;94.80
25440;DHT22;13365;52.208;5.488;2022-11-21T07:20:34;9.00;94.90
25440;DHT22;13365;52.208;5.488;2022-11-21T07:22:59;9.20;94.90
25440;DHT22;13365;52.208;5.488;2022-11-21T07:25:25;9.30;94.60
25440;DHT22;13365;52.208;5.488;2022-11-21T07:27:51;9.50;94.50
25440;DHT22;13365;52.208;5.488;2022-11-21T07:30:17;9.50;94.40
25440;DHT22;13365;52.208;5.488;2022-11-21T07:32:42;9.40;94.30
25440;DHT22;13365;52.208;5.488;2022-11-21T07:35:08;9.50;94.40
25440;DHT22;13365;52.208;5.488;2022-11-21T07:37:38;9.50;94.20
25440;DHT22;13365;52.208;5.488;2022-11-21T07:40:05;9.50;94.30
25440;DHT22;13365;52.208;5.488;2022-11-21T07:42:34;9.50;94.20
25440;DHT22;13365;52.208;5.488;2022-11-21T07:44:59;9.50;94.30
25440;DHT22;13365;52.208;5.488;2022-11-21T07:47:25;9.60;94.30
25440;DHT22;13365;52.208;5.488;2022-11-21T07:49:50;9.60;94.20
25440;DHT22;13365;52.208;5.488;2022-11-21T07:52:16;9.60;94.10
25440;DHT22;13365;52.208;5.488;2022-11-21T07:54:41;9.60;94.20
25440;DHT22;13365;52.208;5.488;2022-11-21T07:57:07;9.60;94.20
25440;DHT22;13365;52.208;5.488;2022-11-21T07:59:33;9.50;94.30
25440;DHT22;13365;52.208;5.488;2022-11-21T08:01:58;9.50;94.60
25440;DHT22;13365;52.208;5.488;2022-11-21T08:04:24;9.60;94.40
25440;DHT22;13365;52.208;5.488;2022-11-21T08:06:49;9.50;94.30
25440;DHT22;13365;52.208;5.488;2022-11-21T08:09:15;9.50;94.60
25440;DHT22;13365;52.208;5.488;2022-11-21T08:11:40;9.60;94.80
25440;DHT22;13365;52.208;5.488;2022-11-21T08:14:06;9.70;94.50
25440;DHT22;13365;52.208;5.488;2022-11-21T08:16:31;9.60;94.50
25440;DHT22;13365;52.208;5.488;2022-11-21T08:19:00;9.70;94.70
25440;DHT22;13365;52.208;5.488;2022-11-21T08:21:26;9.70;94.60
25440;DHT22;13365;52.208;5.488;2022-11-21T08:23:53;9.80;94.60
25440;DHT22;13365;52.208;5.488;2022-11-21T08:26:20;9.90;94.50
25440;DHT22;13365;52.208;5.488;2022-11-21T08:28:46;9.80;94.30
25440;DHT22;13365;52.208;5.488;2022-11-21T08:31:12;9.70;94.40
25440;DHT22;13365;52.208;5.488;2022-11-21T08:33:37;9.80;94.50
25440;DHT22;13365;52.208;5.488;2022-11-21T08:36:06;9.80;94.40
25440;DHT22;13365;52.208;5.488;2022-11-21T08:38:32;9.90;94.40
25440;DHT22;13365;52.208;5.488;2022-11-21T08:40:58;9.70;94.40
25440;DHT22;13365;52.208;5.488;2022-11-21T08:43:42;9.70;94.60
25440;DHT22;13365;52.208;5.488;2022-11-21T08:46:08;9.70;94.80
25440;DHT22;13365;52.208;5.488;2022-11-21T08:48:33;9.80;94.60
25440;DHT22;13365;52.208;5.488;2022-11-21T08:50:59;9.70;94.60
25440;DHT22;13365;52.208;5.488;2022-11-21T08:53:25;9.70;94.80
25440;DHT22;13365;52.208;5.488;2022-11-21T08:55:52;9.70;94.90
25440;DHT22;13365;52.208;5.488;2022-11-21T08:58:18;9.80;94.90
25440;DHT22;13365;52.208;5.488;2022-11-21T09:00:43;9.70;94.90
25440;DHT22;13365;52.208;5.488;2022-11-21T09:03:08;9.90;95.10
25440;DHT22;13365;52.208;5.488;2022-11-21T09:05:34;10.00;94.90
25440;DHT22;13365;52.208;5.488;2022-11-21T09:07:59;10.10;94.90
25440;DHT22;13365;52.208;5.488;2022-11-21T09:10:25;10.20;94.90
25440;DHT22;13365;52.208;5.488;2022-11-21T09:12:51;10.20;94.80
25440;DHT22;13365;52.208;5.488;2022-11-21T09:15:17;10.30;94.70
25440;DHT22;13365;52.208;5.488;2022-11-21T09:18:01;10.50;94.70
25440;DHT22;13365;52.208;5.488;2022-11-21T09:20:27;10.50;94.60
25440;DHT22;13365;52.208;5.488;2022-11-21T09:22:53;10.50;94.60
25440;DHT22;13365;52.208;5.488;2022-11-21T09:25:18;10.40;94.50
25440;DHT22;13365;52.208;5.488;2022-11-21T09:27:44;10.30;94.80
25440;DHT22;13365;52.208;5.488;2022-11-21T09:30:10;10.10;95.40
25440;DHT22;13365;52.208;5.488;2022-11-21T09:32:36;10.00;95.70
25440;DHT22;13365;52.208;5.488;2022-11-21T09:35:01;10.10;95.70
25440;DHT22;13365;52.208;5.488;2022-11-21T09:37:27;10.30;95.70
25440;DHT22;13365;52.208;5.488;2022-11-21T09:39:52;10.40;95.50
25440;DHT22;13365;52.208;5.488;2022-11-21T09:42:50;10.50;95.40
25440;DHT22;13365;52.208;5.488;2022-11-21T09:45:25;10.60;95.20
25440;DHT22;13365;52.208;5.488;2022-11-21T09:47:52;10.70;95.00
25440;DHT22;13365;52.208;5.488;2022-11-21T09:50:48;10.70;95.10
25440;DHT22;13365;52.208;5.488;2022-11-21T09:53:21;10.70;95.00
25440;DHT22;13365;52.208;5.488;2022-11-21T09:59:15;10.60;95.30
25440;DHT22;13365;52.208;5.488;2022-11-21T10:01:37;10.60;95.70
25440;DHT22;13365;52.208;5.488;2022-11-21T10:04:03;10.60;95.80
25440;DHT22;13365;52.208;5.488;2022-11-21T10:06:31;10.60;95.70
25440;DHT22;13365;52.208;5.488;2022-11-21T10:09:18;10.60;95.70
25440;DHT22;13365;52.208;5.488;2022-11-21T10:18:08;10.60;95.90
25440;DHT22;13365;52.208;5.488;2022-11-21T10:21:11;10.80;96.10
25440;DHT22;13365;52.208;5.488;2022-11-21T10:31:48;10.30;96.50
25440;DHT22;13365;52.208;5.488;2022-11-21T10:34:21;10.40;96.70
25440;DHT22;13365;52.208;5.488;2022-11-21T10:36:51;10.50;96.70
25440;DHT22;13365;52.208;5.488;2022-11-21T10:39:25;10.70;96.60
25440;DHT22;13365;52.208;5.488;2022-11-21T10:42:04;10.70;96.20
25440;DHT22;13365;52.208;5.488;2022-11-21T10:44:36;10.50;96.50
25440;DHT22;13365;52.208;5.488;2022-11-21T10:47:27;10.40;96.70
25440;DHT22;13365;52.208;5.488;2022-11-21T10:50:09;10.30;97.20
25440;DHT22;13365;52.208;5.488;2022-11-21T10:53:05;10.40;97.50
25440;DHT22;13365;52.208;5.488;2022-11-21T10:56:02;10.60;97.40
25440;DHT22;13365;52.208;5.488;2022-11-21T10:58:43;10.60;97.40
25440;DHT22;13365;52.208;5.488;2022-11-21T11:01:26;10.70;97.40
25440;DHT22;13365;52.208;5.488;2022-11-21T11:06:39;11.10;97.00
25440;DHT22;13365;52.208;5.488;2022-11-21T11:09:05;11.20;96.90
25440;DHT22;13365;52.208;5.488;2022-11-21T11:11:32;11.20;96.90
25440;DHT22;13365;52.208;5.488;2022-11-21T11:14:03;11.40;96.90
25440;DHT22;13365;52.208;5.488;2022-11-21T11:16:31;11.40;96.50
25440;DHT22;13365;52.208;5.488;2022-11-21T11:19:00;11.50;96.30
25440;DHT22;13365;52.208;5.488;2022-11-21T11:24:25;11.50;96.40
25440;DHT22;13365;52.208;5.488;2022-11-21T11:27:01;11.40;96.70
25440;DHT22;13365;52.208;5.488;2022-11-21T11:29:31;11.40;97.00
25440;DHT22;13365;52.208;5.488;2022-11-21T11:32:01;11.40;97.40
25440;DHT22;13365;52.208;5.488;2022-11-21T11:34:39;11.60;97.10
25440;DHT22;13365;52.208;5.488;2022-11-21T11:37:13;11.80;96.80
25440;DHT22;13365;52.208;5.488;2022-11-21T11:40:06;11.90;96.60
25440;DHT22;13365;52.208;5.488;2022-11-21T11:42:57;11.70;96.50
25440;DHT22;13365;52.208;5.488;2022-11-21T11:48:50;11.80;96.90
25440;DHT22;13365;52.208;5.488;2022-11-21T11:51:19;11.90;96.80
25440;DHT22;13365;52.208;5.488;2022-11-21T11:53:50;12.00;96.80
25440;DHT22;13365;52.208;5.488;2022-11-21T11:56:29;12.00;96.50
25440;DHT22;13365;52.208;5.488;2022-11-21T11:59:13;12.10;96.50
25440;DHT22;13365;52.208;5.488;2022-11-21T12:01:58;12.00;96.30
25440;DHT22;13365;52.208;5.488;2022-11-21T12:04:27;11.90;96.70
25440;DHT22;13365;52.208;5.488;2022-11-21T12:07:20;12.00;96.70
25440;DHT22;13365;52.208;5.488;2022-11-21T12:12:36;12.30;96.70
25440;DHT22;13365;52.208;5.488;2022-11-21T12:15:31;12.30;96.50
25440;DHT22;13365;52.208;5.488;2022-11-21T12:23:47;12.30;96.60
25440;DHT22;13365;52.208;5.488;2022-11-21T12:34:16;12.60;96.40
25440;DHT22;13365;52.208;5.488;2022-11-21T12:37:08;12.60;96.40
25440;DHT22;13365;52.208;5.488;2022-11-21T12:54:51;12.80;95.30
25440;DHT22;13365;52.208;5.488;2022-11-21T12:57:28;12.70;95.70
25440;DHT22;13365;52.208;5.488;2022-11-21T13:00:24;12.90;96.10
25440;DHT22;13365;52.208;5.488;2022-11-21T13:05:45;13.20;95.90
25440;DHT22;13365;52.208;5.488;2022-11-21T13:08:15;13.30;95.80
25440;DHT22;13365;52.208;5.488;2022-11-21T13:10:51;13.50;95.60
25440;DHT22;13365;52.208;5.488;2022-11-21T13:13:42;13.70;95.00
25440;DHT22;13365;52.208;5.488;2022-11-21T13:16:14;13.70;94.80
25440;DHT22;13365;52.208;5.488;2022-11-21T13:18:43;13.60;94.80
25440;DHT22;13365;52.208;5.488;2022-11-21T13:21:43;13.70;94.70
25440;DHT22;13365;52.208;5.488;2022-11-21T13:24:09;13.40;94.80
25440;DHT22;13365;52.208;5.488;2022-11-21T13:29:07;13.50;95.10
25440;DHT22;13365;52.208;5.488;2022-11-21T13:31:34;13.50;94.70
25440;DHT22;13365;52.208;5.488;2022-11-21T13:34:01;13.60;94.60
25440;DHT22;13365;52.208;5.488;2022-11-21T14:06:04;13.40;94.50
25440;DHT22;13365;52.208;5.488;2022-11-21T14:08:33;13.20;94.60
25440;DHT22;13365;52.208;5.488;2022-11-21T14:11:20;13.20;94.60
25440;DHT22;13365;52.208;5.488;2022-11-21T14:13:47;13.20;94.50
25440;DHT22;13365;52.208;5.488;2022-11-21T14:18:52;13.00;94.70
25440;DHT22;13365;52.208;5.488;2022-11-21T14:21:21;12.80;95.30
25440;DHT22;13365;52.208;5.488;2022-11-21T14:23:58;12.60;95.20
25440;DHT22;13365;52.208;5.488;2022-11-21T14:26:30;12.60;95.50
25440;DHT22;13365;52.208;5.488;2022-11-21T14:29:19;12.50;95.90
25440;DHT22;13365;52.208;5.488;2022-11-21T14:31:48;12.60;95.90
25440;DHT22;13365;52.208;5.488;2022-11-21T14:34:26;12.70;95.70
25440;DHT22;13365;52.208;5.488;2022-11-21T14:36:53;12.90;95.40
25440;DHT22;13365;52.208;5.488;2022-11-21T14:39:22;12.90;95.30
25440;DHT22;13365;52.208;5.488;2022-11-21T14:41:50;12.90;95.50
25440;DHT22;13365;52.208;5.488;2022-11-21T14:44:18;12.80;95.30
25440;DHT22;13365;52.208;5.488;2022-11-21T14:46:44;12.70;95.40
25440;DHT22;13365;52.208;5.488;2022-11-21T14:51:48;12.70;95.60
25440;DHT22;13365;52.208;5.488;2022-11-21T14:57:21;12.80;95.30
25440;DHT22;13365;52.208;5.488;2022-11-21T14:59:48;12.80;95.30
25440;DHT22;13365;52.208;5.488;2022-11-21T15:02:34;12.80;95.30
25440;DHT22;13365;52.208;5.488;2022-11-21T15:05:02;12.60;95.40
25440;DHT22;13365;52.208;5.488;2022-11-21T15:07:35;12.70;95.50
25440;DHT22;13365;52.208;5.488;2022-11-21T15:10:03;12.80;95.30
25440;DHT22;13365;52.208;5.488;2022-11-21T15:12:39;12.80;95.10
25440;DHT22;13365;52.208;5.488;2022-11-21T15:17:51;12.70;95.10
25440;DHT22;13365;52.208;5.488;2022-11-21T15:20:19;12.80;95.10
25440;DHT22;13365;52.208;5.488;2022-11-21T15:22:46;12.80;95.00
25440;DHT22;13365;52.208;5.488;2022-11-21T15:27:45;12.70;95.00
25440;DHT22;13365;52.208;5.488;2022-11-21T15:33:00;12.60;95.40
25440;DHT22;13365;52.208;5.488;2022-11-21T15:35:49;12.60;95.40
25440;DHT22;13365;52.208;5.488;2022-11-21T15:38:39;12.60;95.30
25440;DHT22;13365;52.208;5.488;2022-11-21T15:43:43;12.70;95.20
25440;DHT22;13365;52.208;5.488;2022-11-21T15:46:15;12.60;95.00
25440;DHT22;13365;52.208;5.488;2022-11-21T15:48:44;12.60;95.20
25440;DHT22;13365;52.208;5.488;2022-11-21T15:51:09;12.50;95.30
25440;DHT22;13365;52.208;5.488;2022-11-21T15:53:36;12.60;95.20
25440;DHT22;13365;52.208;5.488;2022-11-21T15:56:01;12.50;95.20
25440;DHT22;13365;52.208;5.488;2022-11-21T15:58:27;12.30;95.60
25440;DHT22;13365;52.208;5.488;2022-11-21T16:00:53;12.30;95.90
25440;DHT22;13365;52.208;5.488;2022-11-21T16:03:18;12.30;95.90
25440;DHT22;13365;52.208;5.488;2022-11-21T16:05:44;12.10;96.30
25440;DHT22;13365;52.208;5.488;2022-11-21T16:08:09;12.00;96.40
25440;DHT22;13365;52.208;5.488;2022-11-21T16:10:35;11.80;96.60
25440;DHT22;13365;52.208;5.488;2022-11-21T16:13:01;11.90;96.60
25440;DHT22;13365;52.208;5.488;2022-11-21T16:15:27;11.90;96.60
25440;DHT22;13365;52.208;5.488;2022-11-21T16:17:52;11.80;96.80
25440;DHT22;13365;52.208;5.488;2022-11-21T16:20:18;11.90;96.80
25440;DHT22;13365;52.208;5.488;2022-11-21T16:22:43;11.80;96.80
25440;DHT22;13365;52.208;5.488;2022-11-21T16:25:09;11.80;96.60
25440;DHT22;13365;52.208;5.488;2022-11-21T16:27:35;11.70;96.90
25440;DHT22;13365;52.208;5.488;2022-11-21T16:30:00;11.80;96.70
25440;DHT22;13365;52.208;5.488;2022-11-21T16:32:26;11.80;96.80
25440;DHT22;13365;52.208;5.488;2022-11-21T16:34:52;11.90;96.60
25440;DHT22;13365;52.208;5.488;2022-11-21T16:37:19;11.90;96.90
25440;DHT22;13365;52.208;5.488;2022-11-21T16:39:45;11.90;96.60
25440;DHT22;13365;52.208;5.488;2022-11-21T16:42:17;12.00;96.40
25440;DHT22;13365;52.208;5.488;2022-11-21T16:44:43;12.10;96.40
25440;DHT22;13365;52.208;5.488;2022-11-21T16:47:08;12.00;96.30
25440;DHT22;13365;52.208;5.488;2022-11-21T16:49:35;12.10;96.40
25440;DHT22;13365;52.208;5.488;2022-11-21T16:52:01;12.10;96.10
25440;DHT22;13365;52.208;5.488;2022-11-21T16:54:26;12.20;96.20
25440;DHT22;13365;52.208;5.488;2022-11-21T16:56:52;12.30;95.90
25440;DHT22;13365;52.208;5.488;2022-11-21T16:59:17;12.30;95.80
25440;DHT22;13365;52.208;5.488;2022-11-21T17:01:43;12.30;95.80
25440;DHT22;13365;52.208;5.488;2022-11-21T17:04:08;12.10;95.80
25440;DHT22;13365;52.208;5.488;2022-11-21T17:06:34;11.90;96.10
25440;DHT22;13365;52.208;5.488;2022-11-21T17:09:00;11.80;96.40
25440;DHT22;13365;52.208;5.488;2022-11-21T17:11:27;11.60;96.70
25440;DHT22;13365;52.208;5.488;2022-11-21T17:13:59;11.70;96.80
25440;DHT22;13365;52.208;5.488;2022-11-21T17:16:25;11.90;96.60
25440;DHT22;13365;52.208;5.488;2022-11-21T17:18:52;11.90;96.60
25440;DHT22;13365;52.208;5.488;2022-11-21T17:21:18;11.90;96.40
25440;DHT22;13365;52.208;5.488;2022-11-21T17:23:44;11.90;96.40
25440;DHT22;13365;52.208;5.488;2022-11-21T17:26:12;11.90;96.50
25440;DHT22;13365;52.208;5.488;2022-11-21T17:28:38;11.80;96.50
25440;DHT22;13365;52.208;5.488;2022-11-21T17:31:11;11.80;96.40
25440;DHT22;13365;52.208;5.488;2022-11-21T17:33:37;11.90;96.40
25440;DHT22;13365;52.208;5.488;2022-11-21T17:36:04;11.90;96.30
25440;DHT22;13365;52.208;5.488;2022-11-21T17:38:30;11.90;96.30
25440;DHT22;13365;52.208;5.488;2022-11-21T17:41:06;12.00;96.20
25440;DHT22;13365;52.208;5.488;2022-11-21T17:43:33;11.90;96.30
25440;DHT22;13365;52.208;5.488;2022-11-21T17:46:00;12.00;96.30
25440;DHT22;13365;52.208;5.488;2022-11-21T17:48:25;12.00;96.20
25440;DHT22;13365;52.208;5.488;2022-11-21T17:51:09;12.20;96.00
25440;DHT22;13365;52.208;5.488;2022-11-21T17:53:37;12.30;95.80
25440;DHT22;13365;52.208;5.488;2022-11-21T17:56:05;12.20;95.70
25440;DHT22;13365;52.208;5.488;2022-11-21T17:58:31;12.10;95.80